Kezdőlap
METAR-TAF:

METAR-TAF

Repülőterek :

Austin, Minnesota, Amerikai Egyesült Államok

földrajzi szélesség: 43-40N, földrajzi hosszúság: 092-56W, magasság: 375 m

Jelenlegi meteorológiai megfigyelések

A jelentés 13 perccel ezelõtt készült, 08:15 UTC
Szélcsend
Hőmérséklet 23°C
Páratartalom 94%
Légköri nyomás 1012 hPa
Látótávolság: 16.1 km
Szakadozott felhőzet 3400 lábon
Szakadozott felhőzet 4000 lábon

METAR: KAUM 100815Z AUTO 00000KT 10SM BKN034 BKN040 23/22 A2988 RMK AO2 LTG DSNT N

Idő: 03:28 (08:28 UTC)


TAF: hiányzik

Meteorológiai megfigyelések és előrejelzések több, mint 4000 repülőtéren (METAR és TAF jelentéseket).

A térképen piros és sárga pontok jelzik az elérhető meteorológiai állomásokat.

Mozgassa az egeret a pont fölött, hogy megjelenjen az állomás neve.

Azután kattintson az időjárási megfigyelések és előrejelzések megtekintéséhez.

A térkép megváltoztatása: kattintson a fekete keresztel jelölt zöld gombra ráközelítéshez, a vonallal jelölt zöld gombra távolításhoz, vagy a zöld nyilakra a szomszédos térképek eléréséhez.


METAR-TAF: